createdAt,value
2023-05-08T00:03:09.136Z,4.00
2023-05-08T00:09:11.615Z,4.00
2023-05-08T00:15:13.795Z,3.53
2023-05-08T00:21:16.090Z,4.10
2023-05-08T00:27:18.294Z,3.10
2023-05-08T00:33:20.518Z,3.08
2023-05-08T00:39:22.613Z,3.42
2023-05-08T00:45:25.461Z,3.60
2023-05-08T00:57:34.946Z,3.55
2023-05-08T01:03:38.152Z,3.25
2023-05-08T01:09:41.034Z,3.78
2023-05-08T01:15:51.113Z,3.00
2023-05-08T01:22:00.560Z,2.88
2023-05-08T01:28:14.401Z,3.13
2023-05-08T01:34:24.796Z,3.30
2023-05-08T01:41:01.045Z,3.70
2023-05-08T01:47:07.516Z,3.67
2023-05-08T01:53:20.356Z,3.15
2023-05-08T01:59:24.359Z,3.50
2023-05-08T02:05:28.161Z,3.20
2023-05-08T02:11:32.745Z,4.03
2023-05-08T02:17:38.672Z,4.05
2023-05-08T02:23:43.390Z,3.25
2023-05-08T02:29:45.682Z,3.05
2023-05-08T02:35:53.547Z,3.30
2023-05-08T02:41:55.894Z,3.30
2023-05-08T02:48:22.824Z,3.55
2023-05-08T02:54:44.672Z,2.60
2023-05-08T03:01:01.119Z,3.57
2023-05-08T03:07:04.895Z,3.20
2023-05-08T03:13:09.883Z,3.10
2023-05-08T03:19:26.856Z,3.63
2023-05-08T03:25:30.791Z,4.30
2023-05-08T03:31:34.649Z,3.92
2023-05-08T03:37:38.740Z,3.40
2023-05-08T03:43:42.107Z,3.53
2023-05-08T03:49:50.185Z,5.88
2023-05-08T03:55:53.338Z,4.13
2023-05-08T04:02:04.808Z,3.33
2023-05-08T04:08:16.152Z,4.35
2023-05-08T04:14:21.861Z,4.00
2023-05-08T04:20:27.907Z,3.65
2023-05-08T04:26:32.156Z,4.28
2023-05-08T04:32:37.599Z,3.55
2023-05-08T04:38:42.030Z,3.67
2023-05-08T04:44:45.983Z,3.63
2023-05-08T04:50:48.550Z,3.75
2023-05-08T04:56:51.110Z,3.42
2023-05-08T05:02:54.006Z,5.40
2023-05-08T05:08:56.631Z,3.85
2023-05-08T05:14:59.188Z,3.67
2023-05-08T05:21:04.717Z,4.07
2023-05-08T05:27:07.338Z,4.57
2023-05-08T05:39:13.450Z,3.38
2023-05-08T05:45:16.447Z,3.97
2023-05-08T05:51:18.995Z,4.38
2023-05-08T05:57:21.476Z,4.32
2023-05-08T06:03:24.190Z,3.53
2023-05-08T06:09:26.603Z,5.45
2023-05-08T06:15:29.070Z,6.80
2023-05-08T06:21:31.722Z,3.95
2023-05-08T06:27:35.156Z,4.78
2023-05-08T06:33:37.753Z,3.95
2023-05-08T06:39:40.218Z,3.80
2023-05-08T06:51:46.648Z,4.03
2023-05-08T06:57:49.011Z,4.13
2023-05-08T07:03:51.511Z,4.22
2023-05-08T07:09:53.864Z,4.88
2023-05-08T07:15:56.522Z,4.53
2023-05-08T07:28:01.624Z,4.90
2023-05-08T07:34:04.245Z,3.90
2023-05-08T07:40:07.133Z,4.75
2023-05-08T07:46:09.816Z,4.53
2023-05-08T07:52:12.652Z,4.55
2023-05-08T08:04:20.751Z,5.28
2023-05-08T08:10:23.251Z,3.08
2023-05-08T08:16:26.063Z,2.90
2023-05-08T08:22:28.522Z,3.17
2023-05-08T08:28:30.848Z,3.53
2023-05-08T08:34:36.589Z,3.63
2023-05-08T08:40:42.639Z,4.03
2023-05-08T08:46:50.961Z,4.82
2023-05-08T08:53:01.736Z,4.07
2023-05-08T08:59:05.156Z,4.75
2023-05-08T09:05:08.074Z,3.92
2023-05-08T09:11:10.665Z,4.57
2023-05-08T09:17:12.913Z,5.00
2023-05-08T09:23:17.679Z,6.15
2023-05-08T09:29:23.067Z,6.72
2023-05-08T09:35:36.243Z,6.55
2023-05-08T09:47:48.650Z,5.57
2023-05-08T09:53:53.740Z,5.97
2023-05-08T10:00:06.739Z,5.47
2023-05-08T10:06:14.095Z,5.50
2023-05-08T10:12:16.536Z,6.20
2023-05-08T10:18:20.930Z,5.68
2023-05-08T10:24:34.078Z,6.60
2023-05-08T10:30:40.397Z,6.38
2023-05-08T10:36:42.931Z,6.32
2023-05-08T10:49:00.829Z,6.43
2023-05-08T10:55:25.051Z,5.90
2023-05-08T11:01:27.853Z,6.22
2023-05-08T11:07:58.794Z,7.38
2023-05-08T11:14:13.667Z,6.68
2023-05-08T11:20:16.606Z,6.07
2023-05-08T11:26:19.128Z,7.15
2023-05-08T11:32:21.506Z,7.80
2023-05-08T11:38:38.764Z,7.18
2023-05-08T11:44:41.672Z,7.78
2023-05-08T11:50:44.778Z,8.18
2023-05-08T11:56:48.641Z,9.27
2023-05-08T12:02:51.312Z,8.40
2023-05-08T12:08:53.946Z,7.40
2023-05-08T12:14:56.360Z,7.07
2023-05-08T12:21:00.583Z,7.30
2023-05-08T12:27:04.254Z,6.95
2023-05-08T12:33:07.643Z,7.90
2023-05-08T12:39:14.839Z,7.72
2023-05-08T12:45:24.910Z,7.72
2023-05-08T12:51:31.851Z,7.13
2023-05-08T12:57:37.536Z,8.75
2023-05-08T13:03:41.418Z,7.55
2023-05-08T13:10:05.121Z,7.75
2023-05-08T13:22:10.542Z,8.23
2023-05-08T13:28:13.349Z,6.95
2023-05-08T13:34:15.802Z,7.57
2023-05-08T13:40:18.843Z,7.63
2023-05-08T13:46:21.483Z,8.35
2023-05-08T13:52:23.796Z,7.45
2023-05-08T13:58:26.231Z,7.55
2023-05-08T14:04:28.548Z,7.40
2023-05-08T14:10:30.769Z,4.93
2023-05-08T14:16:33.522Z,5.63
2023-05-08T14:22:35.970Z,8.77
2023-05-08T14:28:38.338Z,5.22
2023-05-08T14:34:40.649Z,5.13
2023-05-08T14:40:42.890Z,7.15
2023-05-08T14:46:45.349Z,9.55
2023-05-08T14:52:47.899Z,7.68
2023-05-08T14:58:54.640Z,7.88
2023-05-08T15:04:57.072Z,7.50
2023-05-08T15:11:00.036Z,7.05
2023-05-08T15:17:03.048Z,7.35
2023-05-08T15:23:05.399Z,7.38
2023-05-08T15:29:07.709Z,7.57
2023-05-08T15:35:10.535Z,7.15
2023-05-08T15:41:15.100Z,6.45
2023-05-08T15:47:20.230Z,6.95
2023-05-08T15:53:22.796Z,6.78
2023-05-08T15:59:25.582Z,6.78
2023-05-08T16:05:27.809Z,5.95
2023-05-08T16:11:33.144Z,5.18
2023-05-08T16:17:35.553Z,5.35
2023-05-08T16:23:37.740Z,4.20
2023-05-08T16:29:40.006Z,3.83
2023-05-08T16:35:42.601Z,3.70
2023-05-08T16:47:48.249Z,4.38
2023-05-08T16:53:50.651Z,3.53
2023-05-08T16:59:53.092Z,2.90
2023-05-08T17:05:55.270Z,2.53
2023-05-08T17:11:59.274Z,2.47
2023-05-08T17:18:01.493Z,3.20
2023-05-08T17:24:03.875Z,1.95
2023-05-08T17:30:12.561Z,1.83
2023-05-08T17:36:15.114Z,2.30
2023-05-08T17:42:17.739Z,1.45
2023-05-08T17:54:22.199Z,1.33
2023-05-08T18:00:24.850Z,1.73
2023-05-08T18:06:27.251Z,2.25
2023-05-08T18:12:32.311Z,1.20
2023-05-08T18:18:34.534Z,1.27
2023-05-08T18:24:37.007Z,1.50
2023-05-08T18:30:40.530Z,1.92
2023-05-08T18:36:42.877Z,0.98
2023-05-08T18:42:49.339Z,1.52
2023-05-08T18:48:51.850Z,1.08
2023-05-08T19:00:57.736Z,1.77
2023-05-08T19:07:01.221Z,1.60
2023-05-08T19:13:05.160Z,2.15
2023-05-08T19:19:09.091Z,2.53
2023-05-08T19:25:13.070Z,2.95
2023-05-08T19:31:15.310Z,3.97
2023-05-08T19:37:17.769Z,4.88
2023-05-08T19:43:20.078Z,4.93
2023-05-08T19:49:24.890Z,5.15
2023-05-08T19:55:27.279Z,5.25
2023-05-08T20:01:29.393Z,5.95
2023-05-08T20:07:31.910Z,6.10
2023-05-08T20:13:34.085Z,6.18
2023-05-08T20:19:36.353Z,6.25
2023-05-08T20:25:38.719Z,6.72
2023-05-08T20:31:41.536Z,6.57
2023-05-08T20:37:45.171Z,5.90
2023-05-08T20:43:47.400Z,6.63
2023-05-08T20:49:49.962Z,6.70
2023-05-08T20:55:53.928Z,6.03
2023-05-08T21:01:56.242Z,6.93
2023-05-08T21:08:02.619Z,4.97
2023-05-08T21:14:05.068Z,5.93
2023-05-08T21:20:08.442Z,5.32
2023-05-08T21:26:10.598Z,6.10
2023-05-08T21:32:12.688Z,4.10
2023-05-08T21:38:14.849Z,5.30
2023-05-08T21:44:17.155Z,5.05
2023-05-08T21:50:19.669Z,4.85
2023-05-08T21:56:22.123Z,5.70
2023-05-08T22:02:24.505Z,4.57
2023-05-08T22:08:27.148Z,5.65
2023-05-08T22:14:29.672Z,4.10
2023-05-08T22:20:32.011Z,3.88
2023-05-08T22:26:34.341Z,3.88
2023-05-08T22:32:36.990Z,5.05
2023-05-08T22:38:41.094Z,3.97
2023-05-08T22:44:44.139Z,4.40
2023-05-08T22:50:47.492Z,3.80
2023-05-08T22:56:49.738Z,4.22
2023-05-08T23:02:52.037Z,3.50
2023-05-08T23:08:54.338Z,3.65
2023-05-08T23:14:56.667Z,3.30
2023-05-08T23:21:04.262Z,3.95
2023-05-08T23:27:06.775Z,3.40
2023-05-08T23:33:09.532Z,3.72
2023-05-08T23:45:14.308Z,3.78
2023-05-08T23:57:19.244Z,3.47
